createdAt,value
2016-08-29T03:00:55.549Z,1012.8
2016-08-29T03:01:21.137Z,1012.76
2016-08-29T03:01:46.814Z,1012.79
2016-08-29T03:02:12.388Z,1012.81
2016-08-29T03:02:37.956Z,1012.84
2016-08-29T03:03:03.504Z,1012.98
2016-08-29T03:03:29.206Z,1012.84
2016-08-29T03:03:54.934Z,1012.84
2016-08-29T03:04:20.537Z,1012.88
2016-08-29T03:04:46.157Z,1012.86
2016-08-29T03:05:11.741Z,1012.77
2016-08-29T03:05:37.369Z,1012.81
2016-08-29T03:06:02.946Z,1012.89
2016-08-29T03:06:28.487Z,1012.86
2016-08-29T03:06:54.155Z,1012.84
2016-08-29T03:07:19.724Z,1012.81
2016-08-29T03:07:45.355Z,1012.84
2016-08-29T03:08:10.963Z,1012.83
2016-08-29T03:08:36.565Z,1012.81
2016-08-29T03:09:02.171Z,1012.8
2016-08-29T03:09:27.744Z,1012.88
2016-08-29T03:09:53.313Z,1012.8
2016-08-29T03:10:19.141Z,1012.81
2016-08-29T03:10:44.703Z,1012.83
2016-08-29T03:11:11.340Z,1012.78
2016-08-29T03:11:36.915Z,1012.85
2016-08-29T03:12:02.575Z,1012.8
2016-08-29T03:12:28.234Z,1012.83
2016-08-29T03:12:53.793Z,1012.81
2016-08-29T03:13:19.365Z,1012.78
2016-08-29T03:13:44.945Z,1012.79
2016-08-29T03:14:10.595Z,1012.8
2016-08-29T03:14:36.297Z,1012.8
2016-08-29T03:15:02.439Z,1012.8
2016-08-29T03:15:28.015Z,1012.77
2016-08-29T03:15:53.782Z,1012.83
2016-08-29T03:16:19.393Z,1012.76
2016-08-29T03:16:44.963Z,1012.85
2016-08-29T03:17:10.597Z,1012.87
2016-08-29T03:17:36.185Z,1012.78
2016-08-29T03:18:01.754Z,1012.79
2016-08-29T03:18:27.408Z,1012.82
2016-08-29T03:18:52.974Z,1012.88
2016-08-29T03:19:18.561Z,1012.85
2016-08-29T03:19:44.165Z,1012.86
2016-08-29T03:20:09.667Z,1012.85
2016-08-29T03:20:35.317Z,1012.89
2016-08-29T03:21:00.935Z,1012.92
2016-08-29T03:21:26.604Z,1012.89
2016-08-29T03:21:52.997Z,1012.89
2016-08-29T03:22:18.567Z,1012.97
2016-08-29T03:22:44.191Z,1012.94
2016-08-29T03:23:09.746Z,1012.92
2016-08-29T03:23:35.401Z,1012.91
2016-08-29T03:24:00.985Z,1012.93
2016-08-29T03:24:26.647Z,1012.92
2016-08-29T03:24:52.276Z,1012.87
2016-08-29T03:25:17.878Z,1012.92
2016-08-29T03:25:43.405Z,1012.88
2016-08-29T03:26:41.711Z,1012.88
2016-08-29T03:27:07.339Z,1012.89
2016-08-29T03:27:32.883Z,1012.9
2016-08-29T03:27:58.491Z,1012.93
2016-08-29T03:28:24.075Z,1012.94
2016-08-29T03:28:49.715Z,1012.92
2016-08-29T03:29:15.342Z,1012.95
2016-08-29T03:29:40.946Z,1012.8
2016-08-29T03:30:06.505Z,1012.9
2016-08-29T03:30:32.073Z,1012.86
2016-08-29T03:30:57.627Z,1012.95
2016-08-29T03:31:23.181Z,1012.91
2016-08-29T03:31:48.965Z,1012.96
2016-08-29T03:32:14.532Z,1012.93
2016-08-29T03:32:40.096Z,1012.94
2016-08-29T03:33:05.719Z,1013.03
2016-08-29T03:33:31.293Z,1012.95
2016-08-29T03:33:56.974Z,1012.92
2016-08-29T03:34:22.696Z,1012.98
2016-08-29T03:34:48.274Z,1012.98
2016-08-29T03:35:13.831Z,1012.91
2016-08-29T03:35:39.420Z,1012.93
2016-08-29T03:36:04.961Z,1012.94
2016-08-29T03:36:30.554Z,1012.94
2016-08-29T03:36:56.134Z,1012.97
2016-08-29T03:37:21.714Z,1012.91
2016-08-29T03:37:47.312Z,1012.96
2016-08-29T03:38:12.927Z,1012.97
2016-08-29T03:38:38.543Z,1012.95
2016-08-29T03:39:04.097Z,1012.93
2016-08-29T03:39:29.705Z,1013.01
2016-08-29T03:39:55.299Z,1012.92
2016-08-29T03:40:21.017Z,1012.99
2016-08-29T03:40:46.557Z,1012.98
2016-08-29T03:41:12.143Z,1013.05
2016-08-29T03:41:37.835Z,1013
2016-08-29T03:42:03.384Z,1013
2016-08-29T03:42:28.996Z,1012.99
2016-08-29T03:42:54.730Z,1013.1
2016-08-29T03:43:20.314Z,1013.11
2016-08-29T03:43:45.920Z,1012.99
2016-08-29T03:44:11.522Z,1013.02
2016-08-29T03:44:37.098Z,1013
2016-08-29T03:45:02.686Z,1013.01
2016-08-29T03:45:28.788Z,1012.98
2016-08-29T03:45:54.574Z,1013.05
2016-08-29T03:46:20.131Z,1012.99
2016-08-29T03:46:45.764Z,1013.01
2016-08-29T03:47:11.314Z,1012.97
2016-08-29T03:47:37.019Z,1013.11
2016-08-29T03:48:03.248Z,1013.02
2016-08-29T03:48:28.876Z,1013.08
2016-08-29T03:48:54.681Z,1013.04
2016-08-29T03:49:20.270Z,1013.08
2016-08-29T03:49:45.944Z,1013.05
2016-08-29T03:50:11.524Z,1013.08
2016-08-29T03:50:37.076Z,1013.08
2016-08-29T03:51:02.662Z,1013.04
2016-08-29T03:51:28.242Z,1013.04
2016-08-29T03:51:53.853Z,1013.08
2016-08-29T03:52:19.411Z,1013.07
2016-08-29T03:52:44.992Z,1013.22
2016-08-29T03:53:10.682Z,1013.18
2016-08-29T03:53:36.202Z,1013.12
2016-08-29T03:54:54.885Z,1013.08
2016-08-29T03:55:20.474Z,1013.03
2016-08-29T03:55:46.098Z,1013.19
2016-08-29T03:56:11.735Z,1013.01
2016-08-29T03:56:37.300Z,1013.13
2016-08-29T03:57:02.877Z,1013.07
2016-08-29T03:57:28.442Z,1013.21
2016-08-29T03:57:54.053Z,1013.22
2016-08-29T03:58:19.844Z,1013.24
2016-08-29T03:58:45.417Z,1013.12
2016-08-29T03:59:11.102Z,1013.14
2016-08-29T03:59:36.683Z,1013.23
2016-08-29T04:00:02.300Z,1013.11
2016-08-29T04:00:27.870Z,1013.18
2016-08-29T04:00:53.418Z,1013.15
2016-08-29T04:01:18.999Z,1013.17
2016-08-29T04:01:44.563Z,1013.19
2016-08-29T04:02:10.205Z,1013.17
2016-08-29T04:02:35.837Z,1013.16
2016-08-29T04:03:01.409Z,1013.22
2016-08-29T04:03:27.014Z,1013.15
2016-08-29T04:03:52.583Z,1013.13
2016-08-29T04:04:18.287Z,1013.15
2016-08-29T04:04:43.847Z,1013.18
2016-08-29T04:05:09.534Z,1013.1
2016-08-29T04:05:35.188Z,1013.1
2016-08-29T04:06:00.762Z,1013.18
2016-08-29T04:06:26.394Z,1013.29
2016-08-29T04:06:51.949Z,1013.27
2016-08-29T04:07:17.513Z,1013.16
2016-08-29T04:07:43.224Z,1013.17
2016-08-29T04:08:08.768Z,1013.22
2016-08-29T04:08:34.445Z,1013.12
2016-08-29T04:09:00.007Z,1013.17
2016-08-29T04:09:25.567Z,1013.19
2016-08-29T04:09:51.220Z,1013.14
2016-08-29T04:10:16.784Z,1013.16
2016-08-29T04:10:42.335Z,1013.2
2016-08-29T04:11:07.902Z,1013.18
2016-08-29T04:11:33.515Z,1013.24
2016-08-29T04:11:59.129Z,1013.23
2016-08-29T04:12:24.822Z,1013.21
2016-08-29T04:12:50.439Z,1013.25
2016-08-29T04:13:16.019Z,1013.16
2016-08-29T04:13:41.645Z,1013.25
2016-08-29T04:14:07.366Z,1013.19
2016-08-29T04:14:32.979Z,1013.21
2016-08-29T04:14:58.569Z,1013.23
2016-08-29T04:15:24.456Z,1013.13
2016-08-29T04:15:50.090Z,1013.15
2016-08-29T04:16:15.734Z,1013.11
2016-08-29T04:16:41.348Z,1013.21
2016-08-29T04:17:06.922Z,1013.13
2016-08-29T04:17:32.586Z,1013.15
2016-08-29T04:17:58.131Z,1013.24
2016-08-29T04:18:23.689Z,1013.22
2016-08-29T04:18:49.285Z,1013.23
2016-08-29T04:19:14.859Z,1013.18
2016-08-29T04:19:40.504Z,1013.13
2016-08-29T04:20:06.187Z,1013.17
2016-08-29T04:20:31.805Z,1013.18
2016-08-29T04:20:57.583Z,1013.12
2016-08-29T04:21:23.165Z,1013.18
2016-08-29T04:21:48.722Z,1013.13
2016-08-29T04:22:14.412Z,1013.23
2016-08-29T04:22:39.986Z,1013.19
2016-08-29T04:23:05.595Z,1013.23
2016-08-29T04:23:31.147Z,1013.2
2016-08-29T04:23:56.726Z,1013.22
2016-08-29T04:24:22.324Z,1013.24
2016-08-29T04:24:47.895Z,1013.24
2016-08-29T04:25:13.538Z,1013.23
2016-08-29T04:25:39.149Z,1013.21
2016-08-29T04:26:04.740Z,1013.21
2016-08-29T04:26:30.383Z,1013.2
2016-08-29T04:26:55.942Z,1013.2
2016-08-29T04:27:21.616Z,1013.17
2016-08-29T04:27:47.259Z,1013.22
2016-08-29T04:28:12.835Z,1013.16
2016-08-29T04:28:38.403Z,1013.22
2016-08-29T04:29:03.954Z,1013.3
2016-08-29T04:29:29.652Z,1013.29
2016-08-29T04:29:55.274Z,1013.29
2016-08-29T04:30:21.267Z,1013.29
2016-08-29T04:30:46.915Z,1013.21
2016-08-29T04:31:12.556Z,1013.22
2016-08-29T04:31:38.156Z,1013.21
2016-08-29T04:32:03.703Z,1013.23
2016-08-29T04:32:29.368Z,1013.23
2016-08-29T04:32:54.927Z,1013.29
2016-08-29T04:33:20.539Z,1013.22
2016-08-29T04:33:46.118Z,1013.16
2016-08-29T04:34:11.708Z,1013.27
2016-08-29T04:34:37.354Z,1013.22
2016-08-29T04:35:02.932Z,1013.24
2016-08-29T04:35:28.505Z,1013.28
2016-08-29T04:35:54.063Z,1013.29
2016-08-29T04:36:19.731Z,1013.29
2016-08-29T04:36:45.372Z,1013.24
2016-08-29T04:37:10.946Z,1013.27
2016-08-29T04:37:36.555Z,1013.24
2016-08-29T04:38:02.100Z,1013.31
2016-08-29T04:38:27.657Z,1013.27
2016-08-29T04:38:53.238Z,1013.29
2016-08-29T04:39:18.812Z,1013.29
2016-08-29T04:39:44.398Z,1013.25
2016-08-29T04:40:09.956Z,1013.36
2016-08-29T04:40:35.509Z,1013.32
2016-08-29T04:41:01.080Z,1013.28
2016-08-29T04:41:26.741Z,1013.31
2016-08-29T04:41:52.295Z,1013.27
2016-08-29T04:42:17.875Z,1013.26
2016-08-29T04:42:43.496Z,1013.31
2016-08-29T04:43:09.083Z,1013.27
2016-08-29T04:43:34.674Z,1013.28
2016-08-29T04:44:00.234Z,1013.28
2016-08-29T04:44:25.935Z,1013.25
2016-08-29T04:45:29.177Z,1013.27
2016-08-29T04:45:54.788Z,1013.3
2016-08-29T04:46:20.356Z,1013.26
2016-08-29T04:46:45.916Z,1013.29
2016-08-29T04:47:11.469Z,1013.28
2016-08-29T04:47:37.055Z,1013.25
2016-08-29T04:48:55.892Z,1013.31
2016-08-29T04:50:09.291Z,1013.33
2016-08-29T04:50:34.888Z,1013.32
2016-08-29T04:51:00.463Z,1013.31
2016-08-29T04:51:26.234Z,1013.34
2016-08-29T04:51:51.904Z,1013.31
2016-08-29T04:52:17.462Z,1013.36
2016-08-29T04:52:43.137Z,1013.32
2016-08-29T04:53:08.824Z,1013.33
2016-08-29T04:54:10.990Z,1013.29
2016-08-29T04:54:36.581Z,1013.35
2016-08-29T04:55:02.257Z,1013.31
2016-08-29T04:55:27.889Z,1013.39
2016-08-29T04:55:53.609Z,1013.35
2016-08-29T04:56:19.207Z,1013.36
2016-08-29T04:56:44.742Z,1013.41
2016-08-29T04:57:11.029Z,1013.39
2016-08-29T04:57:36.646Z,1013.4
2016-08-29T04:58:02.875Z,1013.42
2016-08-29T04:58:28.436Z,1013.4
2016-08-29T04:58:54.120Z,1013.41
2016-08-29T04:59:20.217Z,1013.4
2016-08-29T04:59:45.789Z,1013.42
2016-08-29T05:00:11.994Z,1013.41
2016-08-29T05:00:37.545Z,1013.42
2016-08-29T05:01:03.792Z,1013.41
2016-08-29T05:01:29.333Z,1013.44
2016-08-29T05:01:54.951Z,1013.41
2016-08-29T05:02:21.143Z,1013.4
2016-08-29T05:02:46.753Z,1013.4
2016-08-29T05:03:12.942Z,1013.44
2016-08-29T05:03:38.553Z,1013.44
2016-08-29T05:04:04.163Z,1013.42
2016-08-29T05:04:30.241Z,1013.41
2016-08-29T05:04:55.838Z,1013.39
2016-08-29T05:05:22.106Z,1013.44
2016-08-29T05:05:47.672Z,1013.4
2016-08-29T05:06:13.801Z,1013.43
2016-08-29T05:06:39.306Z,1013.44
2016-08-29T05:07:04.906Z,1013.4
2016-08-29T05:07:31.170Z,1013.44
2016-08-29T05:07:56.754Z,1013.45
2016-08-29T05:08:23.052Z,1013.43
2016-08-29T05:08:48.639Z,1013.45
2016-08-29T05:09:14.365Z,1013.41
2016-08-29T05:09:40.376Z,1013.42
2016-08-29T05:10:06.056Z,1013.42
2016-08-29T05:10:32.174Z,1013.4
2016-08-29T05:10:57.743Z,1013.44
2016-08-29T05:11:23.953Z,1013.4
2016-08-29T05:11:49.536Z,1013.41
2016-08-29T05:12:15.203Z,1013.46
2016-08-29T05:12:41.303Z,1013.46
2016-08-29T05:13:06.977Z,1013.47
2016-08-29T05:13:33.077Z,1013.43
2016-08-29T05:13:58.640Z,1013.46
2016-08-29T05:14:24.251Z,1013.45
2016-08-29T05:14:50.444Z,1013.4
2016-08-29T05:15:16.158Z,1013.48
2016-08-29T05:15:42.293Z,1013.47
2016-08-29T05:16:07.848Z,1013.48
2016-08-29T05:16:34.009Z,1013.49
2016-08-29T05:16:59.658Z,1013.46
2016-08-29T05:17:25.283Z,1013.48
2016-08-29T05:17:51.397Z,1013.47
2016-08-29T05:18:17.037Z,1013.49
2016-08-29T05:18:43.244Z,1013.51
2016-08-29T05:19:08.900Z,1013.47
2016-08-29T05:19:34.556Z,1013.48
2016-08-29T05:20:00.616Z,1013.53
2016-08-29T05:20:26.197Z,1013.51
2016-08-29T05:20:52.335Z,1013.54
2016-08-29T05:21:17.909Z,1013.52
2016-08-29T05:21:44.073Z,1013.53
2016-08-29T05:22:09.632Z,1013.59
2016-08-29T05:22:35.222Z,1013.61
2016-08-29T05:23:01.523Z,1013.53
2016-08-29T05:23:27.120Z,1013.49
2016-08-29T05:23:53.303Z,1013.57
2016-08-29T05:24:18.872Z,1013.6
2016-08-29T05:24:44.453Z,1013.55
2016-08-29T05:25:10.604Z,1013.54
2016-08-29T05:25:36.605Z,1013.56
2016-08-29T05:26:34.696Z,1013.59
2016-08-29T05:27:00.241Z,1013.59
2016-08-29T05:27:25.801Z,1013.55
2016-08-29T05:27:51.453Z,1013.6
2016-08-29T05:28:17.021Z,1013.58
2016-08-29T05:28:42.720Z,1013.59
2016-08-29T05:29:08.393Z,1013.6
2016-08-29T05:29:33.965Z,1013.63
2016-08-29T05:29:59.645Z,1013.62
2016-08-29T05:30:25.259Z,1013.6
2016-08-29T05:30:50.833Z,1013.62
2016-08-29T05:31:16.368Z,1013.62
2016-08-29T05:31:41.919Z,1013.65
2016-08-29T05:32:07.524Z,1013.62
2016-08-29T05:32:33.070Z,1013.69
2016-08-29T05:33:41.444Z,1013.71
2016-08-29T05:34:07.086Z,1013.68
2016-08-29T05:34:32.727Z,1013.7
2016-08-29T05:34:58.308Z,1013.68
2016-08-29T05:35:23.953Z,1013.67
2016-08-29T05:35:49.608Z,1013.69
2016-08-29T05:36:15.169Z,1013.67
2016-08-29T05:36:40.745Z,1013.69
2016-08-29T05:37:06.324Z,1013.69
2016-08-29T05:37:31.861Z,1013.68
2016-08-29T05:37:57.540Z,1013.73
2016-08-29T05:38:23.260Z,1013.74
2016-08-29T05:38:48.815Z,1013.74
2016-08-29T05:39:14.430Z,1013.71
2016-08-29T05:39:39.994Z,1013.69
2016-08-29T05:40:05.740Z,1013.74
2016-08-29T05:40:31.371Z,1013.68
2016-08-29T05:40:56.923Z,1013.71
2016-08-29T05:41:22.531Z,1013.69
2016-08-29T05:41:48.077Z,1013.74
2016-08-29T05:42:13.662Z,1013.68
2016-08-29T05:42:39.196Z,1013.68
2016-08-29T05:43:04.832Z,1013.69
2016-08-29T05:43:30.426Z,1013.64
2016-08-29T05:43:55.978Z,1013.62
2016-08-29T05:44:21.590Z,1013.69
2016-08-29T05:44:47.170Z,1013.71
2016-08-29T05:45:12.872Z,1013.77
2016-08-29T05:45:38.477Z,1013.73
2016-08-29T05:46:04.044Z,1013.67
2016-08-29T05:46:29.626Z,1013.68
2016-08-29T05:46:55.175Z,1013.64
2016-08-29T05:47:20.734Z,1013.62
2016-08-29T05:47:46.307Z,1013.66
2016-08-29T05:48:12.029Z,1013.6
2016-08-29T05:48:37.619Z,1013.67
2016-08-29T05:49:03.220Z,1013.66
2016-08-29T05:49:28.877Z,1013.64
2016-08-29T05:49:54.543Z,1013.66
2016-08-29T05:50:20.106Z,1013.65
2016-08-29T05:50:45.666Z,1013.64
2016-08-29T05:51:11.226Z,1013.66
2016-08-29T05:51:36.790Z,1013.66
2016-08-29T05:52:02.330Z,1013.63
2016-08-29T05:52:28.011Z,1013.62
2016-08-29T05:52:53.598Z,1013.66
2016-08-29T05:53:19.154Z,1013.66
2016-08-29T05:54:37.987Z,1013.66
2016-08-29T05:55:03.552Z,1013.76
2016-08-29T05:55:29.375Z,1013.74
2016-08-29T05:55:54.972Z,1013.77
2016-08-29T05:56:20.597Z,1013.73
2016-08-29T05:56:46.175Z,1013.7
2016-08-29T05:57:11.830Z,1013.72
2016-08-29T05:57:37.405Z,1013.81
2016-08-29T05:58:03.050Z,1013.73
2016-08-29T05:58:28.640Z,1013.75
2016-08-29T05:58:54.239Z,1013.77
2016-08-29T05:59:19.977Z,1013.85
2016-08-29T05:59:45.550Z,1013.74
2016-08-29T06:00:11.181Z,1013.79
2016-08-29T06:01:34.027Z,1013.89
2016-08-29T06:01:59.581Z,1013.82
2016-08-29T06:02:25.227Z,1013.77
2016-08-29T06:02:50.782Z,1013.78
2016-08-29T06:03:16.703Z,1013.81
2016-08-29T06:03:42.276Z,1013.77
2016-08-29T06:04:07.825Z,1013.81
2016-08-29T06:04:34.110Z,1013.84
2016-08-29T06:04:59.678Z,1013.82
2016-08-29T06:05:25.998Z,1013.8
2016-08-29T06:05:51.709Z,1013.85
2016-08-29T06:06:17.266Z,1013.88
2016-08-29T06:06:43.248Z,1013.83
2016-08-29T06:07:08.909Z,1013.87
2016-08-29T06:07:35.058Z,1013.84
2016-08-29T06:08:00.683Z,1013.85
2016-08-29T06:08:26.804Z,1013.84
2016-08-29T06:08:52.354Z,1013.83
2016-08-29T06:09:17.970Z,1013.86
2016-08-29T06:09:44.230Z,1013.84
2016-08-29T06:10:09.826Z,1013.92
2016-08-29T06:10:35.982Z,1013.86
2016-08-29T06:11:01.579Z,1013.91
2016-08-29T06:11:27.214Z,1013.96
2016-08-29T06:11:53.319Z,1013.99
2016-08-29T06:12:18.862Z,1013.94
2016-08-29T06:12:45.135Z,1013.95
2016-08-29T06:13:10.695Z,1013.95
2016-08-29T06:13:36.890Z,1013.97
2016-08-29T06:14:02.466Z,1013.99
2016-08-29T06:14:28.088Z,1013.94
2016-08-29T06:14:54.313Z,1013.94
2016-08-29T06:15:19.867Z,1013.93
2016-08-29T06:15:46.068Z,1013.89
2016-08-29T06:16:11.633Z,1013.9
2016-08-29T06:16:37.185Z,1014.03
2016-08-29T06:17:03.430Z,1013.92
2016-08-29T06:17:28.990Z,1013.94
2016-08-29T06:17:55.221Z,1013.99
2016-08-29T06:18:20.817Z,1014
2016-08-29T06:18:46.984Z,1013.99
2016-08-29T06:19:12.634Z,1013.96
2016-08-29T06:19:38.223Z,1013.94
2016-08-29T08:29:35.084Z,1015.84
2016-08-29T08:30:00.689Z,1015.81
2016-08-29T08:30:26.304Z,1015.84
2016-08-29T08:30:51.943Z,1015.86
2016-08-29T08:31:17.522Z,1015.88
2016-08-29T08:31:43.122Z,1015.84
2016-08-29T08:32:08.675Z,1015.82
2016-08-29T08:32:34.240Z,1015.88
2016-08-29T08:32:59.798Z,1015.88
2016-08-29T08:33:25.374Z,1015.87
2016-08-29T08:33:51.082Z,1015.8
2016-08-29T08:34:16.653Z,1015.86
2016-08-29T08:34:42.216Z,1015.86
2016-08-29T08:35:07.781Z,1015.87
2016-08-29T08:35:34.039Z,1015.84
2016-08-29T08:35:59.607Z,1015.88
2016-08-29T08:36:25.217Z,1015.86
2016-08-29T08:36:50.804Z,1015.89
2016-08-29T08:37:16.362Z,1015.89
2016-08-29T08:37:41.907Z,1015.88
2016-08-29T08:38:07.508Z,1015.91
2016-08-29T08:38:33.069Z,1015.87
2016-08-29T08:38:58.723Z,1015.89
2016-08-29T08:39:24.283Z,1015.89
2016-08-29T08:39:49.840Z,1015.87
2016-08-29T08:40:15.404Z,1015.92
2016-08-29T08:40:41.051Z,1015.9
2016-08-29T08:41:06.620Z,1015.89
2016-08-29T08:41:32.183Z,1015.92
2016-08-29T08:41:57.730Z,1015.92
2016-08-29T08:42:23.268Z,1015.91
2016-08-29T08:42:48.858Z,1015.91
2016-08-29T08:43:14.469Z,1015.95
2016-08-29T08:43:40.022Z,1015.96
2016-08-29T08:44:05.577Z,1016
2016-08-29T08:44:31.150Z,1016.03
2016-08-29T08:44:56.743Z,1016.08
2016-08-29T08:45:22.337Z,1016.12
2016-08-29T08:45:47.884Z,1016.19
2016-08-29T08:46:13.460Z,1016.19
2016-08-29T08:46:39.008Z,1016.25
2016-08-29T08:47:04.532Z,1016.25
2016-08-29T08:47:30.070Z,1016.19
2016-08-29T08:47:55.609Z,1016.19
2016-08-29T08:48:21.161Z,1016.2
2016-08-29T08:48:46.730Z,1016.21
2016-08-29T08:49:12.279Z,1016.19
2016-08-29T08:49:37.815Z,1016.24
2016-08-29T08:50:03.360Z,1016.22
2016-08-29T08:50:28.923Z,1016.25
2016-08-29T08:50:54.592Z,1016.26
2016-08-29T08:51:20.115Z,1016.26
2016-08-29T08:51:45.772Z,1016.25
2016-08-29T08:52:11.333Z,1016.26
2016-08-29T08:52:36.996Z,1016.27
2016-08-29T08:53:02.554Z,1016.23
2016-08-29T08:53:28.119Z,1016.21
2016-08-29T08:53:53.820Z,1016.24
2016-08-29T08:54:19.375Z,1016.22
2016-08-29T08:54:44.901Z,1016.26
2016-08-29T08:55:10.464Z,1016.25
2016-08-29T08:55:36.612Z,1016.22
2016-08-29T08:56:02.183Z,1016.27
2016-08-29T08:56:27.685Z,1016.26
2016-08-29T08:56:53.230Z,1016.25
2016-08-29T08:57:18.773Z,1016.29
2016-08-29T08:57:44.365Z,1016.25
2016-08-29T08:58:09.914Z,1016.27
2016-08-29T08:58:35.538Z,1016.27
2016-08-29T08:59:01.101Z,1016.26
2016-08-29T08:59:26.668Z,1016.3
2016-08-29T08:59:52.208Z,1016.29
2016-08-29T09:00:17.756Z,1016.31
2016-08-29T09:00:43.304Z,1016.33
2016-08-29T09:01:09.333Z,1016.36
2016-08-29T09:01:34.898Z,1016.32
2016-08-29T09:02:00.471Z,1016.34
2016-08-29T09:02:26.058Z,1016.38
2016-08-29T09:02:51.642Z,1016.41
2016-08-29T09:03:17.196Z,1016.41
2016-08-29T09:03:42.763Z,1016.41
2016-08-29T09:04:08.318Z,1016.45
2016-08-29T09:04:33.871Z,1016.44
2016-08-29T09:04:59.433Z,1016.41
2016-08-29T09:05:25.451Z,1016.42
2016-08-29T09:05:50.816Z,1016.44
2016-08-29T09:06:16.463Z,1016.48
2016-08-29T09:06:42.032Z,1016.44
2016-08-29T09:07:07.592Z,1016.45
2016-08-29T09:07:33.176Z,1016.46
2016-08-29T09:07:58.720Z,1016.48
2016-08-29T09:08:24.265Z,1016.5
2016-08-29T09:08:49.862Z,1016.48
2016-08-29T09:09:15.466Z,1016.51
2016-08-29T09:09:41.062Z,1016.49
2016-08-29T09:10:06.615Z,1016.49
2016-08-29T09:10:32.243Z,1016.5
2016-08-29T09:10:57.842Z,1016.5
2016-08-29T09:11:23.412Z,1016.49
2016-08-29T09:11:48.967Z,1016.5
2016-08-29T09:12:14.516Z,1016.5
2016-08-29T09:12:40.067Z,1016.49
2016-08-29T09:13:05.614Z,1016.5
2016-08-29T09:13:31.164Z,1016.51
2016-08-29T09:13:56.742Z,1016.45
2016-08-29T09:14:22.337Z,1016.49
2016-08-29T09:14:47.922Z,1016.48
2016-08-29T09:15:14.204Z,1016.56
2016-08-29T09:15:39.764Z,1016.54
2016-08-29T09:16:05.317Z,1016.54
2016-08-29T09:16:30.880Z,1016.56
2016-08-29T09:16:56.465Z,1016.52
2016-08-29T09:17:22.120Z,1016.5
2016-08-29T09:17:47.683Z,1016.51
2016-08-29T09:18:14.210Z,1016.54
2016-08-29T09:18:39.776Z,1016.56
2016-08-29T09:19:05.329Z,1016.53
2016-08-29T09:19:30.895Z,1016.51
2016-08-29T09:19:56.469Z,1016.51
2016-08-29T09:20:22.381Z,1016.5
2016-08-29T09:20:47.950Z,1016.49
2016-08-29T09:22:06.495Z,1016.52
2016-08-29T09:22:32.056Z,1016.53
2016-08-29T09:22:57.664Z,1016.52
2016-08-29T09:23:23.276Z,1016.49
2016-08-29T09:23:48.846Z,1016.47
2016-08-29T09:24:14.411Z,1016.5
2016-08-29T09:24:40.048Z,1016.54
2016-08-29T09:25:05.626Z,1016.53
2016-08-29T09:25:31.348Z,1016.54
2016-08-29T09:25:56.934Z,1016.53
2016-08-29T09:26:22.503Z,1016.54
2016-08-29T09:26:48.144Z,1016.59
2016-08-29T09:27:13.704Z,1016.53
2016-08-29T09:27:39.254Z,1016.55
2016-08-29T09:28:04.822Z,1016.58
2016-08-29T09:28:30.382Z,1016.55
2016-08-29T09:28:55.955Z,1016.57
2016-08-29T09:29:21.513Z,1016.56
2016-08-29T09:29:47.071Z,1016.57
2016-08-29T09:30:12.864Z,1016.58
2016-08-29T09:30:38.414Z,1016.55
2016-08-29T09:31:03.975Z,1016.57
2016-08-29T09:31:29.533Z,1016.57
2016-08-29T09:31:55.099Z,1016.58
2016-08-29T09:32:20.648Z,1016.55
2016-08-29T09:32:46.218Z,1016.55
2016-08-29T09:33:11.793Z,1016.58
2016-08-29T09:33:37.446Z,1016.59
2016-08-29T09:34:03.015Z,1016.6
2016-08-29T09:34:28.580Z,1016.62
2016-08-29T09:34:54.143Z,1016.59
2016-08-29T09:35:19.835Z,1016.59
2016-08-29T09:35:45.399Z,1016.62
2016-08-29T09:36:10.963Z,1016.62
2016-08-29T09:36:36.543Z,1016.56
2016-08-29T09:37:02.127Z,1016.63
2016-08-29T09:37:27.704Z,1016.68
2016-08-29T09:37:53.257Z,1016.65
2016-08-29T09:38:18.833Z,1016.67
2016-08-29T09:38:44.421Z,1016.7
2016-08-29T09:39:09.975Z,1016.7
2016-08-29T09:39:35.530Z,1016.62
2016-08-29T09:40:01.076Z,1016.66
2016-08-29T09:40:26.652Z,1016.63
2016-08-29T09:40:52.206Z,1016.66
2016-08-29T09:41:17.841Z,1016.63
2016-08-29T09:41:43.414Z,1016.64
2016-08-29T09:42:09.000Z,1016.69
2016-08-29T09:42:34.596Z,1016.61
2016-08-29T09:43:00.174Z,1016.63
2016-08-29T09:43:25.749Z,1016.7
2016-08-29T09:43:51.303Z,1016.67
2016-08-29T09:44:16.939Z,1016.65
2016-08-29T09:44:42.485Z,1016.64
2016-08-29T09:45:08.045Z,1016.65
2016-08-29T09:45:33.657Z,1016.66
2016-08-29T09:45:59.230Z,1016.67
2016-08-29T09:46:24.810Z,1016.68
2016-08-29T09:46:50.495Z,1016.68
2016-08-29T09:47:16.191Z,1016.67
2016-08-29T09:47:41.747Z,1016.73
2016-08-29T09:48:07.296Z,1016.7
2016-08-29T09:48:32.879Z,1016.66
2016-08-29T09:48:58.454Z,1016.72
2016-08-29T09:49:24.055Z,1016.71
2016-08-29T09:49:49.602Z,1016.72
2016-08-29T09:50:15.547Z,1016.7
2016-08-29T09:50:41.097Z,1016.71
2016-08-29T09:51:06.673Z,1016.73
2016-08-29T09:51:32.249Z,1016.75
2016-08-29T09:51:57.818Z,1016.79
2016-08-29T09:52:23.368Z,1016.79
2016-08-29T09:52:48.926Z,1016.81
2016-08-29T09:53:14.493Z,1016.81
2016-08-29T09:53:40.044Z,1016.78
2016-08-29T09:54:05.606Z,1016.78
2016-08-29T09:54:31.160Z,1016.8
2016-08-29T09:54:56.691Z,1016.78
2016-08-29T09:55:22.270Z,1016.8
2016-08-29T09:55:47.821Z,1016.78
2016-08-29T09:56:13.365Z,1016.81
2016-08-29T09:56:38.909Z,1016.79
2016-08-29T09:57:04.565Z,1016.83
2016-08-29T09:57:30.147Z,1016.85
2016-08-29T09:57:55.699Z,1016.8
2016-08-29T09:58:21.263Z,1016.8
2016-08-29T09:58:46.846Z,1016.78
2016-08-29T09:59:12.422Z,1016.81
2016-08-29T09:59:37.971Z,1016.85
2016-08-29T10:00:03.540Z,1016.83
2016-08-29T10:00:29.080Z,1016.86
2016-08-29T10:00:54.619Z,1016.79
2016-08-29T10:01:20.164Z,1016.78
2016-08-29T10:01:45.709Z,1016.8
2016-08-29T10:02:11.235Z,1016.82
2016-08-29T10:02:36.776Z,1016.87
2016-08-29T10:03:02.316Z,1016.85
2016-08-29T10:03:27.871Z,1016.79
2016-08-29T10:03:53.445Z,1016.87
2016-08-29T10:04:19.001Z,1016.84
2016-08-29T10:04:44.551Z,1016.85
2016-08-29T10:05:10.118Z,1016.85
2016-08-29T10:05:35.673Z,1016.87
2016-08-29T10:06:01.237Z,1016.86
2016-08-29T10:06:26.782Z,1016.85
2016-08-29T10:06:52.344Z,1016.85
2016-08-29T10:07:17.935Z,1016.9
2016-08-29T10:07:43.469Z,1016.96
2016-08-29T10:08:09.019Z,1016.94
2016-08-29T10:08:34.588Z,1016.93
2016-08-29T10:09:01.065Z,1016.86
2016-08-29T10:09:26.627Z,1016.93
2016-08-29T10:09:52.202Z,1016.89
2016-08-29T10:10:17.766Z,1016.9
2016-08-29T10:10:43.317Z,1016.95
2016-08-29T10:11:08.882Z,1016.95
2016-08-29T10:11:34.525Z,1016.93
2016-08-29T10:12:00.156Z,1016.97
2016-08-29T10:12:25.734Z,1016.93
2016-08-29T10:12:51.287Z,1016.96
2016-08-29T10:13:16.868Z,1016.96
2016-08-29T10:13:42.401Z,1016.99
2016-08-29T10:14:07.958Z,1017
2016-08-29T10:14:33.520Z,1016.96
2016-08-29T10:14:59.076Z,1016.99
2016-08-29T10:15:27.800Z,1016.91
2016-08-29T10:15:53.444Z,1016.93
2016-08-29T10:16:56.666Z,1016.92
2016-08-29T10:17:22.228Z,1016.93
2016-08-29T10:18:30.856Z,1016.94
2016-08-29T10:18:56.431Z,1016.92
2016-08-29T10:19:23.039Z,1016.98
2016-08-29T10:21:29.069Z,1016.97
2016-08-29T10:21:54.627Z,1016.99
2016-08-29T10:22:20.188Z,1017.03
2016-08-29T10:22:45.824Z,1017.02
2016-08-29T10:23:11.404Z,1017.05
2016-08-29T10:23:36.975Z,1017
2016-08-29T10:24:02.559Z,1017.04
2016-08-29T10:24:28.139Z,1017.1
2016-08-29T10:24:53.703Z,1017.07
2016-08-29T10:25:19.274Z,1017.1
2016-08-29T10:25:44.977Z,1017.05
2016-08-29T10:26:10.567Z,1017.08
2016-08-29T10:26:36.124Z,1017.11
2016-08-29T10:27:01.738Z,1017.08
2016-08-29T10:27:27.286Z,1017.11
2016-08-29T10:27:52.847Z,1017.1
2016-08-29T10:28:18.409Z,1017.12
2016-08-29T10:28:43.977Z,1017.07
2016-08-29T10:29:09.546Z,1017.14
2016-08-29T10:29:35.110Z,1017.14
2016-08-29T10:30:00.670Z,1017.2
2016-08-29T10:30:26.218Z,1017.18
2016-08-29T10:30:51.775Z,1017.18
2016-08-29T10:31:17.366Z,1017.16
2016-08-29T10:31:42.931Z,1017.18
2016-08-29T10:32:08.514Z,1017.18
2016-08-29T10:32:34.085Z,1017.21
2016-08-29T10:32:59.657Z,1017.18